sensor_id;sensor_type;location;lat;lon;timestamp;P1;durP1;ratioP1;P2;durP2;ratioP2
77705;SDS011;66874;45.274;5.880;2024-01-15T00:01:07;42.63;;;19.85;;
77705;SDS011;66874;45.274;5.880;2024-01-15T00:03:32;48.13;;;19.60;;
77705;SDS011;66874;45.274;5.880;2024-01-15T00:05:58;43.17;;;19.88;;
77705;SDS011;66874;45.274;5.880;2024-01-15T00:08:23;44.85;;;19.25;;
77705;SDS011;66874;45.274;5.880;2024-01-15T00:10:49;47.63;;;20.30;;
77705;SDS011;66874;45.274;5.880;2024-01-15T00:13:14;50.83;;;20.80;;
77705;SDS011;66874;45.274;5.880;2024-01-15T00:15:39;49.53;;;20.60;;
77705;SDS011;66874;45.274;5.880;2024-01-15T00:18:05;45.92;;;20.55;;
77705;SDS011;66874;45.274;5.880;2024-01-15T00:20:30;52.50;;;21.98;;
77705;SDS011;66874;45.274;5.880;2024-01-15T00:22:56;54.05;;;23.08;;
77705;SDS011;66874;45.274;5.880;2024-01-15T00:25:21;51.75;;;23.40;;
77705;SDS011;66874;45.274;5.880;2024-01-15T00:27:47;47.53;;;23.25;;
77705;SDS011;66874;45.274;5.880;2024-01-15T00:30:12;55.33;;;23.85;;
77705;SDS011;66874;45.274;5.880;2024-01-15T00:32:38;46.65;;;21.48;;
77705;SDS011;66874;45.274;5.880;2024-01-15T00:35:03;44.67;;;20.73;;
77705;SDS011;66874;45.274;5.880;2024-01-15T00:37:29;48.80;;;20.70;;
77705;SDS011;66874;45.274;5.880;2024-01-15T00:39:55;46.95;;;20.30;;
77705;SDS011;66874;45.274;5.880;2024-01-15T00:42:20;54.60;;;22.30;;
77705;SDS011;66874;45.274;5.880;2024-01-15T00:44:45;44.40;;;20.55;;
77705;SDS011;66874;45.274;5.880;2024-01-15T00:47:11;52.55;;;19.30;;
77705;SDS011;66874;45.274;5.880;2024-01-15T00:49:36;40.15;;;18.92;;
77705;SDS011;66874;45.274;5.880;2024-01-15T00:52:01;41.28;;;18.83;;
77705;SDS011;66874;45.274;5.880;2024-01-15T00:54:27;40.35;;;19.23;;
77705;SDS011;66874;45.274;5.880;2024-01-15T00:56:52;46.45;;;20.50;;
77705;SDS011;66874;45.274;5.880;2024-01-15T00:59:18;45.35;;;20.42;;
77705;SDS011;66874;45.274;5.880;2024-01-15T01:01:45;42.80;;;18.73;;
77705;SDS011;66874;45.274;5.880;2024-01-15T01:04:11;38.83;;;19.17;;
77705;SDS011;66874;45.274;5.880;2024-01-15T01:06:37;42.72;;;19.75;;
77705;SDS011;66874;45.274;5.880;2024-01-15T01:09:02;42.78;;;19.48;;
77705;SDS011;66874;45.274;5.880;2024-01-15T01:11:28;41.83;;;18.88;;
77705;SDS011;66874;45.274;5.880;2024-01-15T01:13:53;49.58;;;21.30;;
77705;SDS011;66874;45.274;5.880;2024-01-15T01:16:19;43.20;;;19.63;;
77705;SDS011;66874;45.274;5.880;2024-01-15T01:18:44;47.90;;;20.40;;
77705;SDS011;66874;45.274;5.880;2024-01-15T01:21:09;46.92;;;21.58;;
77705;SDS011;66874;45.274;5.880;2024-01-15T01:23:35;48.95;;;22.70;;
77705;SDS011;66874;45.274;5.880;2024-01-15T01:26:00;47.63;;;22.38;;
77705;SDS011;66874;45.274;5.880;2024-01-15T01:28:25;49.95;;;21.73;;
77705;SDS011;66874;45.274;5.880;2024-01-15T01:30:51;46.55;;;20.95;;
77705;SDS011;66874;45.274;5.880;2024-01-15T01:33:16;45.20;;;20.52;;
77705;SDS011;66874;45.274;5.880;2024-01-15T01:35:41;44.90;;;19.63;;
77705;SDS011;66874;45.274;5.880;2024-01-15T01:38:08;45.55;;;20.25;;
77705;SDS011;66874;45.274;5.880;2024-01-15T01:40:33;38.13;;;20.45;;
77705;SDS011;66874;45.274;5.880;2024-01-15T01:42:59;49.25;;;21.25;;
77705;SDS011;66874;45.274;5.880;2024-01-15T01:45:24;48.88;;;21.50;;
77705;SDS011;66874;45.274;5.880;2024-01-15T01:47:49;44.80;;;20.30;;
77705;SDS011;66874;45.274;5.880;2024-01-15T01:50:16;42.08;;;20.27;;
77705;SDS011;66874;45.274;5.880;2024-01-15T01:52:41;53.60;;;22.05;;
77705;SDS011;66874;45.274;5.880;2024-01-15T01:55:07;44.20;;;19.25;;
77705;SDS011;66874;45.274;5.880;2024-01-15T01:57:35;42.50;;;20.65;;
77705;SDS011;66874;45.274;5.880;2024-01-15T02:00:02;46.72;;;19.88;;
77705;SDS011;66874;45.274;5.880;2024-01-15T02:04:54;36.53;;;17.67;;
77705;SDS011;66874;45.274;5.880;2024-01-15T02:07:19;45.17;;;20.30;;
77705;SDS011;66874;45.274;5.880;2024-01-15T02:09:45;44.88;;;20.45;;
77705;SDS011;66874;45.274;5.880;2024-01-15T02:12:11;43.28;;;19.83;;
77705;SDS011;66874;45.274;5.880;2024-01-15T02:14:37;51.25;;;21.33;;
77705;SDS011;66874;45.274;5.880;2024-01-15T02:17:02;39.92;;;19.88;;
77705;SDS011;66874;45.274;5.880;2024-01-15T02:19:28;42.15;;;19.13;;
77705;SDS011;66874;45.274;5.880;2024-01-15T02:21:53;45.75;;;20.42;;
77705;SDS011;66874;45.274;5.880;2024-01-15T02:24:18;39.55;;;19.10;;
77705;SDS011;66874;45.274;5.880;2024-01-15T02:26:44;45.22;;;19.98;;
77705;SDS011;66874;45.274;5.880;2024-01-15T02:29:09;46.05;;;19.55;;
77705;SDS011;66874;45.274;5.880;2024-01-15T02:31:36;44.10;;;19.73;;
77705;SDS011;66874;45.274;5.880;2024-01-15T02:34:01;42.20;;;20.08;;
77705;SDS011;66874;45.274;5.880;2024-01-15T02:36:27;38.47;;;16.75;;
77705;SDS011;66874;45.274;5.880;2024-01-15T02:38:52;39.13;;;18.00;;
77705;SDS011;66874;45.274;5.880;2024-01-15T02:41:18;49.38;;;19.27;;
77705;SDS011;66874;45.274;5.880;2024-01-15T02:43:43;43.50;;;20.33;;
77705;SDS011;66874;45.274;5.880;2024-01-15T02:46:08;42.85;;;18.92;;
77705;SDS011;66874;45.274;5.880;2024-01-15T02:48:34;39.65;;;16.98;;
77705;SDS011;66874;45.274;5.880;2024-01-15T02:51:02;36.40;;;15.02;;
77705;SDS011;66874;45.274;5.880;2024-01-15T02:53:28;28.17;;;13.70;;
77705;SDS011;66874;45.274;5.880;2024-01-15T02:55:53;39.38;;;16.02;;
77705;SDS011;66874;45.274;5.880;2024-01-15T02:58:19;32.13;;;14.73;;
77705;SDS011;66874;45.274;5.880;2024-01-15T03:00:44;35.78;;;18.38;;
77705;SDS011;66874;45.274;5.880;2024-01-15T03:03:11;40.40;;;18.57;;
77705;SDS011;66874;45.274;5.880;2024-01-15T03:05:36;45.60;;;18.63;;
77705;SDS011;66874;45.274;5.880;2024-01-15T03:08:02;47.60;;;20.15;;
77705;SDS011;66874;45.274;5.880;2024-01-15T03:10:27;37.60;;;17.75;;
77705;SDS011;66874;45.274;5.880;2024-01-15T03:12:53;38.38;;;17.58;;
77705;SDS011;66874;45.274;5.880;2024-01-15T03:15:18;38.42;;;17.95;;
77705;SDS011;66874;45.274;5.880;2024-01-15T03:17:44;36.50;;;17.25;;
77705;SDS011;66874;45.274;5.880;2024-01-15T03:20:09;35.78;;;16.70;;
77705;SDS011;66874;45.274;5.880;2024-01-15T03:22:35;38.05;;;17.90;;
77705;SDS011;66874;45.274;5.880;2024-01-15T03:25:01;39.90;;;18.55;;
77705;SDS011;66874;45.274;5.880;2024-01-15T03:27:26;39.38;;;18.15;;
77705;SDS011;66874;45.274;5.880;2024-01-15T03:29:52;35.08;;;17.42;;
77705;SDS011;66874;45.274;5.880;2024-01-15T03:32:17;37.47;;;17.05;;
77705;SDS011;66874;45.274;5.880;2024-01-15T03:34:42;33.83;;;17.13;;
77705;SDS011;66874;45.274;5.880;2024-01-15T03:37:08;42.30;;;18.08;;
77705;SDS011;66874;45.274;5.880;2024-01-15T03:39:33;36.65;;;17.10;;
77705;SDS011;66874;45.274;5.880;2024-01-15T03:41:59;42.63;;;18.13;;
77705;SDS011;66874;45.274;5.880;2024-01-15T03:44:24;35.80;;;17.15;;
77705;SDS011;66874;45.274;5.880;2024-01-15T03:46:50;43.75;;;19.15;;
77705;SDS011;66874;45.274;5.880;2024-01-15T03:49:15;39.95;;;16.95;;
77705;SDS011;66874;45.274;5.880;2024-01-15T03:51:40;36.90;;;17.33;;
77705;SDS011;66874;45.274;5.880;2024-01-15T03:54:06;30.80;;;15.10;;
77705;SDS011;66874;45.274;5.880;2024-01-15T03:56:31;32.20;;;16.90;;
77705;SDS011;66874;45.274;5.880;2024-01-15T03:58:56;36.05;;;16.50;;
77705;SDS011;66874;45.274;5.880;2024-01-15T04:01:22;29.50;;;15.55;;
77705;SDS011;66874;45.274;5.880;2024-01-15T04:03:47;34.97;;;16.77;;
77705;SDS011;66874;45.274;5.880;2024-01-15T04:06:13;39.17;;;16.90;;
77705;SDS011;66874;45.274;5.880;2024-01-15T04:08:38;31.50;;;15.52;;
77705;SDS011;66874;45.274;5.880;2024-01-15T04:11:03;34.42;;;16.60;;
77705;SDS011;66874;45.274;5.880;2024-01-15T04:13:31;34.47;;;16.10;;
77705;SDS011;66874;45.274;5.880;2024-01-15T04:15:57;34.00;;;15.82;;
77705;SDS011;66874;45.274;5.880;2024-01-15T04:18:23;41.00;;;17.83;;
77705;SDS011;66874;45.274;5.880;2024-01-15T04:20:48;36.58;;;16.58;;
77705;SDS011;66874;45.274;5.880;2024-01-15T04:23:13;36.20;;;16.80;;
77705;SDS011;66874;45.274;5.880;2024-01-15T04:25:39;35.83;;;17.48;;
77705;SDS011;66874;45.274;5.880;2024-01-15T04:28:07;36.05;;;17.00;;
77705;SDS011;66874;45.274;5.880;2024-01-15T04:30:33;32.08;;;15.35;;
77705;SDS011;66874;45.274;5.880;2024-01-15T04:32:58;38.58;;;18.05;;
77705;SDS011;66874;45.274;5.880;2024-01-15T04:35:24;33.53;;;16.08;;
77705;SDS011;66874;45.274;5.880;2024-01-15T04:37:49;36.60;;;16.65;;
77705;SDS011;66874;45.274;5.880;2024-01-15T04:40:15;35.30;;;16.92;;
77705;SDS011;66874;45.274;5.880;2024-01-15T04:42:40;34.25;;;16.33;;
77705;SDS011;66874;45.274;5.880;2024-01-15T04:45:05;34.50;;;16.92;;
77705;SDS011;66874;45.274;5.880;2024-01-15T04:47:31;35.95;;;16.58;;
77705;SDS011;66874;45.274;5.880;2024-01-15T04:49:56;40.17;;;16.92;;
77705;SDS011;66874;45.274;5.880;2024-01-15T04:52:22;35.22;;;17.23;;
77705;SDS011;66874;45.274;5.880;2024-01-15T04:54:47;33.42;;;16.00;;
77705;SDS011;66874;45.274;5.880;2024-01-15T04:57:12;36.05;;;15.68;;
77705;SDS011;66874;45.274;5.880;2024-01-15T04:59:38;34.65;;;15.23;;
77705;SDS011;66874;45.274;5.880;2024-01-15T05:02:04;34.50;;;16.48;;
77705;SDS011;66874;45.274;5.880;2024-01-15T05:04:30;37.45;;;15.85;;
77705;SDS011;66874;45.274;5.880;2024-01-15T05:06:55;34.55;;;15.20;;
77705;SDS011;66874;45.274;5.880;2024-01-15T05:09:20;30.60;;;15.60;;
77705;SDS011;66874;45.274;5.880;2024-01-15T05:11:46;33.53;;;15.93;;
77705;SDS011;66874;45.274;5.880;2024-01-15T05:14:11;34.58;;;15.52;;
77705;SDS011;66874;45.274;5.880;2024-01-15T05:16:40;37.22;;;16.35;;
77705;SDS011;66874;45.274;5.880;2024-01-15T05:19:11;34.63;;;16.35;;
77705;SDS011;66874;45.274;5.880;2024-01-15T05:21:36;32.42;;;15.32;;
77705;SDS011;66874;45.274;5.880;2024-01-15T05:24:02;36.45;;;15.43;;
77705;SDS011;66874;45.274;5.880;2024-01-15T05:26:27;37.28;;;16.73;;
77705;SDS011;66874;45.274;5.880;2024-01-15T05:28:52;33.58;;;15.82;;
77705;SDS011;66874;45.274;5.880;2024-01-15T05:31:18;36.50;;;16.27;;
77705;SDS011;66874;45.274;5.880;2024-01-15T05:33:43;36.95;;;16.85;;
77705;SDS011;66874;45.274;5.880;2024-01-15T05:36:08;36.88;;;16.63;;
77705;SDS011;66874;45.274;5.880;2024-01-15T05:38:34;31.70;;;16.50;;
77705;SDS011;66874;45.274;5.880;2024-01-15T05:40:59;40.28;;;17.15;;
77705;SDS011;66874;45.274;5.880;2024-01-15T05:43:24;38.85;;;16.52;;
77705;SDS011;66874;45.274;5.880;2024-01-15T05:45:50;31.30;;;16.70;;
77705;SDS011;66874;45.274;5.880;2024-01-15T05:48:15;33.28;;;15.85;;
77705;SDS011;66874;45.274;5.880;2024-01-15T05:50:41;36.47;;;17.58;;
77705;SDS011;66874;45.274;5.880;2024-01-15T05:53:07;38.75;;;17.08;;
77705;SDS011;66874;45.274;5.880;2024-01-15T05:55:32;37.75;;;17.13;;
77705;SDS011;66874;45.274;5.880;2024-01-15T05:57:57;35.67;;;16.52;;
77705;SDS011;66874;45.274;5.880;2024-01-15T06:00:23;42.40;;;18.10;;
77705;SDS011;66874;45.274;5.880;2024-01-15T06:02:48;34.55;;;17.15;;
77705;SDS011;66874;45.274;5.880;2024-01-15T06:05:13;37.13;;;16.80;;
77705;SDS011;66874;45.274;5.880;2024-01-15T06:07:39;36.47;;;17.10;;
77705;SDS011;66874;45.274;5.880;2024-01-15T06:10:04;34.42;;;17.63;;
77705;SDS011;66874;45.274;5.880;2024-01-15T06:12:30;37.38;;;16.35;;
77705;SDS011;66874;45.274;5.880;2024-01-15T06:14:57;39.57;;;18.43;;
77705;SDS011;66874;45.274;5.880;2024-01-15T06:17:22;37.10;;;17.10;;
77705;SDS011;66874;45.274;5.880;2024-01-15T06:19:48;36.90;;;16.75;;
77705;SDS011;66874;45.274;5.880;2024-01-15T06:22:13;36.58;;;19.13;;
77705;SDS011;66874;45.274;5.880;2024-01-15T06:24:38;38.72;;;19.33;;
77705;SDS011;66874;45.274;5.880;2024-01-15T06:27:04;34.97;;;17.10;;
77705;SDS011;66874;45.274;5.880;2024-01-15T06:29:29;41.22;;;17.73;;
77705;SDS011;66874;45.274;5.880;2024-01-15T06:31:55;41.85;;;21.10;;
77705;SDS011;66874;45.274;5.880;2024-01-15T06:34:20;56.00;;;24.80;;
77705;SDS011;66874;45.274;5.880;2024-01-15T06:36:45;50.78;;;22.40;;
77705;SDS011;66874;45.274;5.880;2024-01-15T06:39:11;46.75;;;20.35;;
77705;SDS011;66874;45.274;5.880;2024-01-15T06:41:37;35.03;;;18.92;;
77705;SDS011;66874;45.274;5.880;2024-01-15T06:44:08;46.45;;;20.33;;
77705;SDS011;66874;45.274;5.880;2024-01-15T06:46:34;38.20;;;17.63;;
77705;SDS011;66874;45.274;5.880;2024-01-15T06:48:59;38.33;;;17.70;;
77705;SDS011;66874;45.274;5.880;2024-01-15T06:51:25;35.97;;;17.25;;
77705;SDS011;66874;45.274;5.880;2024-01-15T06:53:51;36.20;;;18.75;;
77705;SDS011;66874;45.274;5.880;2024-01-15T06:56:16;34.33;;;17.45;;
77705;SDS011;66874;45.274;5.880;2024-01-15T06:58:41;35.55;;;17.08;;
77705;SDS011;66874;45.274;5.880;2024-01-15T07:01:07;38.13;;;18.30;;
77705;SDS011;66874;45.274;5.880;2024-01-15T07:03:32;37.30;;;17.42;;
77705;SDS011;66874;45.274;5.880;2024-01-15T07:05:58;35.35;;;17.40;;
77705;SDS011;66874;45.274;5.880;2024-01-15T07:08:23;40.08;;;19.27;;
77705;SDS011;66874;45.274;5.880;2024-01-15T07:10:49;41.97;;;18.60;;
77705;SDS011;66874;45.274;5.880;2024-01-15T07:13:14;41.33;;;17.80;;
77705;SDS011;66874;45.274;5.880;2024-01-15T07:15:39;33.10;;;18.55;;
77705;SDS011;66874;45.274;5.880;2024-01-15T07:18:05;42.80;;;20.08;;
77705;SDS011;66874;45.274;5.880;2024-01-15T07:20:30;41.33;;;20.25;;
77705;SDS011;66874;45.274;5.880;2024-01-15T07:22:56;39.45;;;19.30;;
77705;SDS011;66874;45.274;5.880;2024-01-15T07:25:21;41.33;;;19.80;;
77705;SDS011;66874;45.274;5.880;2024-01-15T07:27:47;43.13;;;20.13;;
77705;SDS011;66874;45.274;5.880;2024-01-15T07:30:12;38.10;;;19.63;;
77705;SDS011;66874;45.274;5.880;2024-01-15T07:32:38;37.70;;;18.90;;
77705;SDS011;66874;45.274;5.880;2024-01-15T07:35:04;34.65;;;18.33;;
77705;SDS011;66874;45.274;5.880;2024-01-15T07:37:30;42.33;;;18.60;;
77705;SDS011;66874;45.274;5.880;2024-01-15T07:39:56;46.53;;;18.75;;
77705;SDS011;66874;45.274;5.880;2024-01-15T07:42:21;39.50;;;20.00;;
77705;SDS011;66874;45.274;5.880;2024-01-15T07:44:47;46.42;;;20.45;;
77705;SDS011;66874;45.274;5.880;2024-01-15T07:47:12;49.65;;;20.02;;
77705;SDS011;66874;45.274;5.880;2024-01-15T07:49:37;43.58;;;21.35;;
77705;SDS011;66874;45.274;5.880;2024-01-15T07:52:03;45.47;;;20.63;;
77705;SDS011;66874;45.274;5.880;2024-01-15T07:54:30;44.80;;;20.85;;
77705;SDS011;66874;45.274;5.880;2024-01-15T07:56:59;46.20;;;20.88;;
77705;SDS011;66874;45.274;5.880;2024-01-15T07:59:26;54.05;;;20.65;;
77705;SDS011;66874;45.274;5.880;2024-01-15T08:01:52;46.80;;;20.80;;
77705;SDS011;66874;45.274;5.880;2024-01-15T08:04:18;51.25;;;23.45;;
77705;SDS011;66874;45.274;5.880;2024-01-15T08:06:44;46.85;;;20.77;;
77705;SDS011;66874;45.274;5.880;2024-01-15T08:09:10;51.08;;;21.25;;
77705;SDS011;66874;45.274;5.880;2024-01-15T08:11:36;40.10;;;20.85;;
77705;SDS011;66874;45.274;5.880;2024-01-15T08:14:04;40.20;;;20.77;;
77705;SDS011;66874;45.274;5.880;2024-01-15T08:16:29;46.38;;;20.10;;
77705;SDS011;66874;45.274;5.880;2024-01-15T08:18:54;51.42;;;21.67;;
77705;SDS011;66874;45.274;5.880;2024-01-15T08:21:20;41.88;;;19.20;;
77705;SDS011;66874;45.274;5.880;2024-01-15T08:23:45;47.13;;;22.27;;
77705;SDS011;66874;45.274;5.880;2024-01-15T08:26:10;40.55;;;20.88;;
77705;SDS011;66874;45.274;5.880;2024-01-15T08:28:36;41.83;;;19.88;;
77705;SDS011;66874;45.274;5.880;2024-01-15T08:31:02;44.55;;;23.10;;
77705;SDS011;66874;45.274;5.880;2024-01-15T08:33:28;45.70;;;22.58;;
77705;SDS011;66874;45.274;5.880;2024-01-15T08:35:53;43.85;;;20.38;;
77705;SDS011;66874;45.274;5.880;2024-01-15T08:38:19;51.70;;;23.33;;
77705;SDS011;66874;45.274;5.880;2024-01-15T08:40:44;50.35;;;21.80;;
77705;SDS011;66874;45.274;5.880;2024-01-15T08:43:10;58.30;;;24.65;;
77705;SDS011;66874;45.274;5.880;2024-01-15T08:45:35;45.53;;;21.98;;
77705;SDS011;66874;45.274;5.880;2024-01-15T08:48:00;40.00;;;19.75;;
77705;SDS011;66874;45.274;5.880;2024-01-15T08:50:26;40.42;;;19.15;;
77705;SDS011;66874;45.274;5.880;2024-01-15T08:52:51;41.67;;;19.77;;
77705;SDS011;66874;45.274;5.880;2024-01-15T08:55:17;41.70;;;20.38;;
77705;SDS011;66874;45.274;5.880;2024-01-15T08:57:42;45.65;;;20.88;;
77705;SDS011;66874;45.274;5.880;2024-01-15T09:00:08;50.65;;;22.05;;
77705;SDS011;66874;45.274;5.880;2024-01-15T09:02:34;41.17;;;18.50;;
77705;SDS011;66874;45.274;5.880;2024-01-15T09:05:00;40.75;;;19.77;;
77705;SDS011;66874;45.274;5.880;2024-01-15T09:07:26;41.75;;;18.23;;
77705;SDS011;66874;45.274;5.880;2024-01-15T09:09:52;43.58;;;20.80;;
77705;SDS011;66874;45.274;5.880;2024-01-15T09:12:18;42.47;;;20.92;;
77705;SDS011;66874;45.274;5.880;2024-01-15T09:17:11;43.17;;;19.00;;
77705;SDS011;66874;45.274;5.880;2024-01-15T09:19:36;40.28;;;20.30;;
77705;SDS011;66874;45.274;5.880;2024-01-15T09:22:02;47.90;;;20.65;;
77705;SDS011;66874;45.274;5.880;2024-01-15T09:24:27;44.30;;;22.88;;
77705;SDS011;66874;45.274;5.880;2024-01-15T09:26:52;45.72;;;20.45;;
77705;SDS011;66874;45.274;5.880;2024-01-15T09:29:18;41.88;;;20.63;;
77705;SDS011;66874;45.274;5.880;2024-01-15T09:31:43;49.28;;;22.77;;
77705;SDS011;66874;45.274;5.880;2024-01-15T09:34:08;47.55;;;22.33;;
77705;SDS011;66874;45.274;5.880;2024-01-15T09:36:43;45.30;;;22.20;;
77705;SDS011;66874;45.274;5.880;2024-01-15T09:39:09;58.10;;;25.45;;
77705;SDS011;66874;45.274;5.880;2024-01-15T09:41:36;58.13;;;27.33;;
77705;SDS011;66874;45.274;5.880;2024-01-15T09:44:02;52.58;;;25.73;;
77705;SDS011;66874;45.274;5.880;2024-01-15T09:46:28;47.50;;;22.58;;
77705;SDS011;66874;45.274;5.880;2024-01-15T09:48:54;50.47;;;22.70;;
77705;SDS011;66874;45.274;5.880;2024-01-15T09:51:20;54.92;;;24.75;;
77705;SDS011;66874;45.274;5.880;2024-01-15T09:53:46;49.17;;;24.35;;
77705;SDS011;66874;45.274;5.880;2024-01-15T09:56:12;47.50;;;23.13;;
77705;SDS011;66874;45.274;5.880;2024-01-15T09:58:38;44.60;;;23.02;;
77705;SDS011;66874;45.274;5.880;2024-01-15T10:01:04;45.17;;;23.00;;
77705;SDS011;66874;45.274;5.880;2024-01-15T10:03:29;45.30;;;21.38;;
77705;SDS011;66874;45.274;5.880;2024-01-15T10:05:55;46.30;;;21.52;;
77705;SDS011;66874;45.274;5.880;2024-01-15T10:08:24;56.47;;;26.23;;
77705;SDS011;66874;45.274;5.880;2024-01-15T10:10:50;55.40;;;27.17;;
77705;SDS011;66874;45.274;5.880;2024-01-15T10:13:16;57.13;;;24.42;;
77705;SDS011;66874;45.274;5.880;2024-01-15T10:15:44;46.97;;;23.25;;
77705;SDS011;66874;45.274;5.880;2024-01-15T10:18:11;47.13;;;23.60;;
77705;SDS011;66874;45.274;5.880;2024-01-15T10:20:37;48.40;;;21.85;;
77705;SDS011;66874;45.274;5.880;2024-01-15T10:23:02;37.65;;;19.65;;
77705;SDS011;66874;45.274;5.880;2024-01-15T10:25:29;45.05;;;20.60;;
77705;SDS011;66874;45.274;5.880;2024-01-15T10:28:02;41.58;;;20.08;;
77705;SDS011;66874;45.274;5.880;2024-01-15T10:30:28;41.30;;;21.13;;
77705;SDS011;66874;45.274;5.880;2024-01-15T10:32:58;42.72;;;18.88;;
77705;SDS011;66874;45.274;5.880;2024-01-15T10:35:26;43.83;;;20.15;;
77705;SDS011;66874;45.274;5.880;2024-01-15T10:37:52;40.42;;;19.55;;
77705;SDS011;66874;45.274;5.880;2024-01-15T10:40:18;44.97;;;21.65;;
77705;SDS011;66874;45.274;5.880;2024-01-15T10:42:44;41.93;;;21.57;;
77705;SDS011;66874;45.274;5.880;2024-01-15T10:45:09;39.70;;;19.75;;
77705;SDS011;66874;45.274;5.880;2024-01-15T10:47:35;39.13;;;19.55;;
77705;SDS011;66874;45.274;5.880;2024-01-15T10:50:01;49.10;;;19.95;;
77705;SDS011;66874;45.274;5.880;2024-01-15T10:52:28;36.58;;;19.67;;
77705;SDS011;66874;45.274;5.880;2024-01-15T10:54:54;38.80;;;20.40;;
77705;SDS011;66874;45.274;5.880;2024-01-15T10:57:20;43.13;;;21.30;;
77705;SDS011;66874;45.274;5.880;2024-01-15T10:59:47;48.22;;;25.30;;
77705;SDS011;66874;45.274;5.880;2024-01-15T11:02:13;54.28;;;24.70;;
77705;SDS011;66874;45.274;5.880;2024-01-15T11:07:05;43.13;;;22.08;;
77705;SDS011;66874;45.274;5.880;2024-01-15T11:09:31;60.60;;;26.65;;
77705;SDS011;66874;45.274;5.880;2024-01-15T11:12:06;53.45;;;25.65;;
77705;SDS011;66874;45.274;5.880;2024-01-15T11:14:33;51.10;;;24.83;;
77705;SDS011;66874;45.274;5.880;2024-01-15T11:17:22;47.78;;;24.38;;
77705;SDS011;66874;45.274;5.880;2024-01-15T11:19:48;52.15;;;24.23;;
77705;SDS011;66874;45.274;5.880;2024-01-15T11:24:54;41.88;;;21.27;;
77705;SDS011;66874;45.274;5.880;2024-01-15T11:27:39;47.15;;;22.73;;
77705;SDS011;66874;45.274;5.880;2024-01-15T11:30:07;44.17;;;20.48;;
77705;SDS011;66874;45.274;5.880;2024-01-15T11:32:36;47.17;;;23.83;;
77705;SDS011;66874;45.274;5.880;2024-01-15T11:35:02;43.13;;;23.83;;
77705;SDS011;66874;45.274;5.880;2024-01-15T11:40:17;46.47;;;22.67;;
77705;SDS011;66874;45.274;5.880;2024-01-15T11:42:46;51.67;;;22.88;;
77705;SDS011;66874;45.274;5.880;2024-01-15T11:45:18;42.67;;;20.55;;
77705;SDS011;66874;45.274;5.880;2024-01-15T11:52:53;35.08;;;16.50;;
77705;SDS011;66874;45.274;5.880;2024-01-15T11:55:29;35.92;;;17.25;;
77705;SDS011;66874;45.274;5.880;2024-01-15T11:58:00;32.85;;;19.05;;
77705;SDS011;66874;45.274;5.880;2024-01-15T12:02:53;31.23;;;16.20;;
77705;SDS011;66874;45.274;5.880;2024-01-15T12:05:19;35.55;;;17.20;;
77705;SDS011;66874;45.274;5.880;2024-01-15T12:07:46;37.40;;;18.77;;
77705;SDS011;66874;45.274;5.880;2024-01-15T12:10:14;44.03;;;19.25;;
77705;SDS011;66874;45.274;5.880;2024-01-15T12:15:09;42.60;;;23.17;;
77705;SDS011;66874;45.274;5.880;2024-01-15T12:17:34;49.72;;;25.95;;
77705;SDS011;66874;45.274;5.880;2024-01-15T12:20:00;40.75;;;20.95;;
77705;SDS011;66874;45.274;5.880;2024-01-15T12:22:25;45.10;;;23.85;;
77705;SDS011;66874;45.274;5.880;2024-01-15T12:24:52;51.22;;;23.63;;
77705;SDS011;66874;45.274;5.880;2024-01-15T12:27:18;47.78;;;24.25;;
77705;SDS011;66874;45.274;5.880;2024-01-15T12:29:43;44.42;;;21.40;;
77705;SDS011;66874;45.274;5.880;2024-01-15T12:32:09;42.67;;;19.23;;
77705;SDS011;66874;45.274;5.880;2024-01-15T12:34:34;37.20;;;17.88;;
77705;SDS011;66874;45.274;5.880;2024-01-15T12:37:00;45.33;;;19.70;;
77705;SDS011;66874;45.274;5.880;2024-01-15T12:39:25;34.03;;;19.20;;
77705;SDS011;66874;45.274;5.880;2024-01-15T12:41:51;35.85;;;16.90;;
77705;SDS011;66874;45.274;5.880;2024-01-15T12:44:16;37.90;;;19.58;;
77705;SDS011;66874;45.274;5.880;2024-01-15T12:46:42;44.75;;;21.15;;
77705;SDS011;66874;45.274;5.880;2024-01-15T12:49:07;45.92;;;22.17;;
77705;SDS011;66874;45.274;5.880;2024-01-15T12:51:36;43.95;;;21.38;;
77705;SDS011;66874;45.274;5.880;2024-01-15T12:54:02;53.10;;;26.42;;
77705;SDS011;66874;45.274;5.880;2024-01-15T12:56:28;55.83;;;27.42;;
77705;SDS011;66874;45.274;5.880;2024-01-15T12:58:53;59.92;;;30.70;;
77705;SDS011;66874;45.274;5.880;2024-01-15T13:01:18;55.60;;;27.85;;
77705;SDS011;66874;45.274;5.880;2024-01-15T13:03:44;46.08;;;23.67;;
77705;SDS011;66874;45.274;5.880;2024-01-15T13:06:09;36.00;;;19.40;;
77705;SDS011;66874;45.274;5.880;2024-01-15T13:08:35;39.05;;;20.40;;
77705;SDS011;66874;45.274;5.880;2024-01-15T13:11:00;35.50;;;19.38;;
77705;SDS011;66874;45.274;5.880;2024-01-15T13:13:26;41.85;;;22.73;;
77705;SDS011;66874;45.274;5.880;2024-01-15T13:15:52;39.33;;;19.27;;
77705;SDS011;66874;45.274;5.880;2024-01-15T13:18:17;37.75;;;19.63;;
77705;SDS011;66874;45.274;5.880;2024-01-15T13:20:43;35.33;;;17.52;;
77705;SDS011;66874;45.274;5.880;2024-01-15T13:23:10;35.40;;;18.08;;
77705;SDS011;66874;45.274;5.880;2024-01-15T13:25:36;41.05;;;19.60;;
77705;SDS011;66874;45.274;5.880;2024-01-15T13:28:03;36.97;;;19.23;;
77705;SDS011;66874;45.274;5.880;2024-01-15T13:30:29;34.67;;;19.03;;
77705;SDS011;66874;45.274;5.880;2024-01-15T13:32:56;42.83;;;19.80;;
77705;SDS011;66874;45.274;5.880;2024-01-15T13:35:22;42.97;;;20.50;;
77705;SDS011;66874;45.274;5.880;2024-01-15T13:37:49;40.30;;;19.88;;
77705;SDS011;66874;45.274;5.880;2024-01-15T13:40:14;38.03;;;18.45;;
77705;SDS011;66874;45.274;5.880;2024-01-15T13:42:45;41.30;;;19.33;;
77705;SDS011;66874;45.274;5.880;2024-01-15T13:45:12;43.00;;;20.38;;
77705;SDS011;66874;45.274;5.880;2024-01-15T13:47:39;39.13;;;19.30;;
77705;SDS011;66874;45.274;5.880;2024-01-15T13:50:06;43.17;;;20.80;;
77705;SDS011;66874;45.274;5.880;2024-01-15T13:52:32;36.43;;;20.57;;
77705;SDS011;66874;45.274;5.880;2024-01-15T13:54:57;35.30;;;18.70;;
77705;SDS011;66874;45.274;5.880;2024-01-15T13:57:22;40.60;;;20.48;;
77705;SDS011;66874;45.274;5.880;2024-01-15T13:59:48;36.17;;;20.05;;
77705;SDS011;66874;45.274;5.880;2024-01-15T14:02:14;35.55;;;18.90;;
77705;SDS011;66874;45.274;5.880;2024-01-15T14:04:40;37.08;;;18.33;;
77705;SDS011;66874;45.274;5.880;2024-01-15T14:07:06;38.92;;;18.63;;
77705;SDS011;66874;45.274;5.880;2024-01-15T14:09:31;40.38;;;21.48;;
77705;SDS011;66874;45.274;5.880;2024-01-15T14:11:57;37.22;;;20.48;;
77705;SDS011;66874;45.274;5.880;2024-01-15T14:14:22;36.75;;;20.48;;
77705;SDS011;66874;45.274;5.880;2024-01-15T14:16:49;39.63;;;20.65;;
77705;SDS011;66874;45.274;5.880;2024-01-15T14:19:14;38.63;;;20.65;;
77705;SDS011;66874;45.274;5.880;2024-01-15T14:21:40;35.45;;;19.63;;
77705;SDS011;66874;45.274;5.880;2024-01-15T14:24:05;42.90;;;20.98;;
77705;SDS011;66874;45.274;5.880;2024-01-15T14:26:31;36.92;;;19.95;;
77705;SDS011;66874;45.274;5.880;2024-01-15T14:28:57;40.88;;;21.15;;
77705;SDS011;66874;45.274;5.880;2024-01-15T14:31:23;46.92;;;22.20;;
77705;SDS011;66874;45.274;5.880;2024-01-15T14:33:51;46.63;;;23.25;;
77705;SDS011;66874;45.274;5.880;2024-01-15T14:36:17;52.20;;;28.30;;